Time,TemperatureF,DewpointF,PressureIn,WindDirection,WindDirectionDegrees,WindSpeedMPH,WindSpeedGustMPH,Humidity,HourlyPrecipIn,Conditions,Clouds,dailyrainin,SoftwareType,DateUTC
2013-12-23 00:00:00,-6.8,-10.4,30.42,NW,304,3.0,10.5,84,0.00,,CLR,0.00,VWS V14.01,2013-12-23 06:00:00,
2013-12-23 00:10:00,-6.8,-10.4,30.42,WNW,300,7.0,11.5,84,0.00,,CLR,0.00,VWS V14.01,2013-12-23 06:10:00,
2013-12-23 00:15:00,-6.9,-10.4,30.42,NW,315,8.0,12.6,84,0.00,,CLR,0.00,VWS V14.01,2013-12-23 06:15:00,
2013-12-23 00:25:00,-7.0,-10.6,30.42,NW,304,8.0,9.4,84,0.00,,CLR,0.00,VWS V14.01,2013-12-23 06:25:00,
2013-12-23 00:35:00,-7.2,-11.0,30.42,NW,323,6.0,10.5,83,0.00,,CLR,0.00,VWS V14.01,2013-12-23 06:35:00,
2013-12-23 00:40:00,-7.2,-11.0,30.42,NW,310,3.0,8.4,83,0.00,,CLR,0.00,VWS V14.01,2013-12-23 06:40:00,
2013-12-23 00:50:00,-7.3,-11.1,30.43,NW,312,5.0,12.6,83,0.00,,CLR,0.00,VWS V14.01,2013-12-23 06:50:00,
2013-12-23 00:55:00,-7.3,-11.1,30.43,WNW,292,2.0,8.4,83,0.00,,CLR,0.00,VWS V14.01,2013-12-23 06:55:00,
2013-12-23 01:00:00,-7.4,-11.2,30.43,NW,323,3.0,12.6,83,0.00,,CLR,0.00,VWS V14.01,2013-12-23 07:00:00,
2013-12-23 01:05:00,-7.5,-11.3,30.43,NW,311,3.0,10.5,83,0.00,,SCT007,0.00,VWS V14.01,2013-12-23 07:05:00,
2013-12-23 01:10:00,-7.5,-11.3,30.43,NW,307,4.0,8.4,83,0.00,,SCT007,0.00,VWS V14.01,2013-12-23 07:10:00,
2013-12-23 01:15:00,-7.5,-11.0,30.44,NW,325,4.0,10.5,84,0.00,,SCT007,0.00,VWS V14.01,2013-12-23 07:15:00,
2013-12-23 01:20:00,-7.5,-11.0,30.44,NW,307,5.0,10.5,84,0.00,,SCT007,0.00,VWS V14.01,2013-12-23 07:20:00,
2013-12-23 01:30:00,-7.6,-11.4,30.44,NW,308,3.0,10.5,83,0.00,,CLR,0.00,VWS V14.01,2013-12-23 07:30:00,
2013-12-23 01:35:00,-7.7,-11.2,30.44,NW,315,8.0,8.4,84,0.00,,CLR,0.00,VWS V14.01,2013-12-23 07:35:00,
2013-12-23 01:45:00,-8.0,-11.8,30.45,NW,313,6.0,10.5,83,0.00,,CLR,0.00,VWS V14.01,2013-12-23 07:45:00,
2013-12-23 01:50:00,-8.0,-11.8,30.44,NW,313,4.0,10.5,83,0.00,,CLR,0.00,VWS V14.01,2013-12-23 07:50:00,
2013-12-23 01:55:00,-8.1,-11.9,30.45,NW,309,10.0,13.6,83,0.00,,CLR,0.00,VWS V14.01,2013-12-23 07:55:00,
2013-12-23 02:00:00,-8.2,-12.0,30.44,WNW,302,9.0,12.6,83,0.00,,CLR,0.00,VWS V14.01,2013-12-23 08:00:00,
2013-12-23 02:10:00,-8.3,-12.1,30.45,WNW,302,9.0,11.5,83,0.00,,CLR,0.00,VWS V14.01,2013-12-23 08:10:00,
2013-12-23 02:15:00,-8.4,-12.2,30.45,WNW,294,7.0,13.6,83,0.00,,CLR,0.00,VWS V14.01,2013-12-23 08:15:00,
2013-12-23 02:20:00,-8.5,-12.3,30.45,NW,311,6.0,13.6,83,0.00,,CLR,0.00,VWS V14.01,2013-12-23 08:20:00,
2013-12-23 02:30:00,-8.6,-12.4,30.46,NW,306,5.0,11.5,83,0.00,,CLR,0.00,VWS V14.01,2013-12-23 08:30:00,
2013-12-23 02:35:00,-8.6,-12.4,30.46,WNW,302,10.0,10.5,83,0.00,,CLR,0.00,VWS V14.01,2013-12-23 08:35:00,
2013-12-23 02:45:00,-8.8,-12.6,30.46,WNW,302,8.0,11.5,83,0.00,,CLR,0.00,VWS V14.01,2013-12-23 08:45:00,
2013-12-23 03:00:00,-8.9,-12.7,30.46,NW,306,8.0,12.6,83,0.00,,CLR,0.00,VWS V14.01,2013-12-23 09:00:00,
2013-12-23 03:10:00,-9.0,-12.8,30.47,NW,309,4.0,15.7,83,0.00,,CLR,0.00,VWS V14.01,2013-12-23 09:10:00,
2013-12-23 03:20:00,-9.1,-12.9,30.48,WNW,288,3.0,9.4,83,0.00,,CLR,0.00,VWS V14.01,2013-12-23 09:20:00,
2013-12-23 03:25:00,-9.1,-12.9,30.48,NW,314,8.0,8.4,83,0.00,,CLR,0.00,VWS V14.01,2013-12-23 09:25:00,
2013-12-23 03:30:00,-9.1,-12.9,30.47,WNW,299,8.0,8.4,83,0.00,,CLR,0.00,VWS V14.01,2013-12-23 09:30:00,
2013-12-23 03:35:00,-9.1,-12.9,30.48,NW,310,4.0,8.4,83,0.00,,CLR,0.00,VWS V14.01,2013-12-23 09:35:00,
2013-12-23 03:40:00,-9.2,-12.9,30.48,WNW,296,5.0,9.4,83,0.00,,CLR,0.00,VWS V14.01,2013-12-23 09:40:00,
2013-12-23 03:45:00,-9.3,-13.3,30.48,WNW,300,2.0,8.4,82,0.00,,CLR,0.00,VWS V14.01,2013-12-23 09:45:00,
2013-12-23 03:50:00,-9.3,-13.3,30.48,NW,304,5.0,9.4,82,0.00,,CLR,0.00,VWS V14.01,2013-12-23 09:50:00,
2013-12-23 03:55:00,-9.4,-13.4,30.48,WNW,301,7.0,12.6,82,0.00,,CLR,0.00,VWS V14.01,2013-12-23 09:55:00,
2013-12-23 04:00:00,-9.5,-13.5,30.48,NW,326,3.0,8.4,82,0.00,,CLR,0.00,VWS V14.01,2013-12-23 10:00:00,
2013-12-23 04:05:00,-9.6,-13.6,30.48,WNW,300,3.0,7.3,82,0.00,,CLR,0.00,VWS V14.01,2013-12-23 10:05:00,
2013-12-23 04:10:00,-9.7,-13.7,30.48,WNW,302,3.0,8.4,82,0.00,,CLR,0.00,VWS V14.01,2013-12-23 10:10:00,
2013-12-23 04:20:00,-10.0,-14.0,30.49,NW,317,3.0,10.5,82,0.00,,CLR,0.00,VWS V14.01,2013-12-23 10:20:00,
2013-12-23 04:30:00,-10.2,-14.2,30.49,NW,322,9.0,9.4,82,0.00,,CLR,0.00,VWS V14.01,2013-12-23 10:30:00,
2013-12-23 04:40:00,-10.3,-14.3,30.49,NW,306,4.0,9.4,82,0.00,,CLR,0.00,VWS V14.01,2013-12-23 10:40:00,
2013-12-23 04:45:00,-10.4,-14.4,30.49,WNW,296,5.0,11.5,82,0.00,,CLR,0.00,VWS V14.01,2013-12-23 10:45:00,
2013-12-23 04:55:00,-10.6,-14.6,30.49,NW,318,4.0,9.4,82,0.00,,CLR,0.00,VWS V14.01,2013-12-23 10:55:00,
2013-12-23 05:00:00,-10.6,-14.6,30.49,WNW,292,3.0,9.4,82,0.00,,CLR,0.00,VWS V14.01,2013-12-23 11:00:00,
2013-12-23 05:10:00,-10.8,-14.8,30.49,NW,307,5.0,10.5,82,0.00,,CLR,0.00,VWS V14.01,2013-12-23 11:10:00,
2013-12-23 05:15:00,-10.8,-14.8,30.50,NW,313,4.0,8.4,82,0.00,,CLR,0.00,VWS V14.01,2013-12-23 11:15:00,
2013-12-23 05:20:00,-10.9,-14.9,30.50,WNW,302,3.0,9.4,82,0.00,,CLR,0.00,VWS V14.01,2013-12-23 11:20:00,
2013-12-23 05:25:00,-11.0,-14.9,30.50,WNW,288,2.0,7.3,82,0.00,,CLR,0.00,VWS V14.01,2013-12-23 11:25:00,
2013-12-23 05:35:00,-11.1,-15.1,30.51,WNW,298,8.0,8.4,82,0.00,,CLR,0.00,VWS V14.01,2013-12-23 11:35:00,
2013-12-23 05:40:00,-11.1,-15.1,30.51,NW,304,3.0,8.4,82,0.00,,CLR,0.00,VWS V14.01,2013-12-23 11:40:00,
2013-12-23 05:45:00,-11.2,-15.1,30.51,NW,306,4.0,8.4,82,0.00,,CLR,0.00,VWS V14.01,2013-12-23 11:45:00,
2013-12-23 05:50:00,-11.2,-15.1,30.51,WNW,296,4.0,7.3,82,0.00,,CLR,0.00,VWS V14.01,2013-12-23 11:50:00,
2013-12-23 06:00:00,-11.2,-15.1,30.51,NW,309,5.0,12.6,82,0.00,,CLR,0.00,VWS V14.01,2013-12-23 12:00:00,
2013-12-23 06:10:00,-11.3,-15.2,30.52,WNW,300,7.0,11.5,82,0.00,,CLR,0.00,VWS V14.01,2013-12-23 12:10:00,
2013-12-23 06:15:00,-11.4,-15.4,30.52,NW,306,8.0,10.5,82,0.00,,CLR,0.00,VWS V14.01,2013-12-23 12:15:00,
2013-12-23 06:20:00,-11.5,-15.4,30.52,NW,319,8.0,12.6,82,0.00,,CLR,0.00,VWS V14.01,2013-12-23 12:20:00,
2013-12-23 06:25:00,-11.5,-15.4,30.53,WNW,297,7.0,8.4,82,0.00,,CLR,0.00,VWS V14.01,2013-12-23 12:25:00,
2013-12-23 06:30:00,-11.5,-15.4,30.53,WNW,284,6.0,12.6,82,0.00,,CLR,0.00,VWS V14.01,2013-12-23 12:30:00,
2013-12-23 06:35:00,-11.5,-15.4,30.53,NW,311,5.0,9.4,82,0.00,,CLR,0.00,VWS V14.01,2013-12-23 12:35:00,
2013-12-23 06:40:00,-11.6,-15.5,30.53,NW,304,7.0,12.6,82,0.00,,CLR,0.00,VWS V14.01,2013-12-23 12:40:00,
2013-12-23 06:50:00,-11.7,-15.6,30.53,NW,304,4.0,12.6,82,0.00,,CLR,0.00,VWS V14.01,2013-12-23 12:50:00,
2013-12-23 06:55:00,-11.7,-15.6,30.53,WNW,292,8.0,14.7,82,0.00,,CLR,0.00,VWS V14.01,2013-12-23 12:55:00,
2013-12-23 07:00:00,-11.8,-15.7,30.54,NW,315,11.0,12.6,82,0.00,,CLR,0.00,VWS V14.01,2013-12-23 13:00:00,
2013-12-23 07:10:00,-12.0,-15.9,30.55,NW,317,8.0,11.5,82,0.00,,SCT090,0.00,VWS V14.01,2013-12-23 13:10:00,
2013-12-23 07:15:00,-12.0,-15.9,30.55,NW,321,6.0,14.7,82,0.00,,SCT090,0.00,VWS V14.01,2013-12-23 13:15:00,
2013-12-23 07:25:00,-12.1,-16.0,30.56,WNW,303,3.0,10.5,82,0.00,,SCT090,0.00,VWS V14.01,2013-12-23 13:25:00,
2013-12-23 07:30:00,-12.2,-16.1,30.56,WNW,296,3.0,11.5,82,0.00,,SCT090,0.00,VWS V14.01,2013-12-23 13:30:00,
2013-12-23 07:35:00,-12.2,-16.4,30.56,NW,317,6.0,10.5,81,0.00,,SCT090,0.00,VWS V14.01,2013-12-23 13:35:00,
2013-12-23 07:40:00,-12.3,-16.5,30.56,NW,325,6.0,11.5,81,0.00,,SCT090,0.00,VWS V14.01,2013-12-23 13:40:00,
2013-12-23 07:45:00,-12.2,-16.1,30.56,NW,311,6.0,10.5,82,0.00,,CLR,0.00,VWS V14.01,2013-12-23 13:45:00,
2013-12-23 07:55:00,-12.3,-16.5,30.57,WNW,297,2.0,11.5,81,0.00,,CLR,0.00,VWS V14.01,2013-12-23 13:55:00,
2013-12-23 08:00:00,-12.4,-16.6,30.56,NW,315,10.0,12.6,81,0.00,,CLR,0.00,VWS V14.01,2013-12-23 14:00:00,
2013-12-23 08:05:00,-12.4,-16.6,30.57,NW,308,10.0,13.6,81,0.00,,CLR,0.00,VWS V14.01,2013-12-23 14:05:00,
2013-12-23 08:10:00,-12.4,-16.6,30.57,NW,313,4.0,13.6,81,0.00,,CLR,0.00,VWS V14.01,2013-12-23 14:10:00,
2013-12-23 08:20:00,-12.6,-16.8,30.57,NW,311,6.0,11.5,81,0.00,,CLR,0.00,VWS V14.01,2013-12-23 14:20:00,
2013-12-23 08:30:00,-12.7,-16.9,30.58,NW,309,5.0,11.5,81,0.00,,CLR,0.00,VWS V14.01,2013-12-23 14:30:00,
2013-12-23 08:35:00,-12.7,-16.9,30.58,NW,307,10.0,13.6,81,0.00,,CLR,0.00,VWS V14.01,2013-12-23 14:35:00,
2013-12-23 08:40:00,-12.7,-16.9,30.58,NW,309,7.0,11.5,81,0.00,,CLR,0.00,VWS V14.01,2013-12-23 14:40:00,
2013-12-23 08:45:00,-12.7,-16.9,30.58,NW,317,8.0,11.5,81,0.00,,CLR,0.00,VWS V14.01,2013-12-23 14:45:00,
2013-12-23 08:50:00,-12.6,-16.8,30.58,WNW,298,9.0,12.6,81,0.00,,CLR,0.00,VWS V14.01,2013-12-23 14:50:00,
2013-12-23 09:00:00,-12.4,-16.6,30.59,WNW,292,8.0,12.6,81,0.00,,CLR,0.00,VWS V14.01,2013-12-23 15:00:00,
2013-12-23 09:05:00,-12.4,-16.6,30.59,WNW,297,3.0,11.5,81,0.00,,CLR,0.00,VWS V14.01,2013-12-23 15:05:00,
2013-12-23 09:10:00,-12.3,-16.7,30.59,NW,311,4.0,11.5,80,0.00,,CLR,0.00,VWS V14.01,2013-12-23 15:10:00,
2013-12-23 09:20:00,-12.0,-16.4,30.59,NW,312,12.0,13.6,80,0.00,,CLR,0.00,VWS V14.01,2013-12-23 15:20:00,
2013-12-23 09:25:00,-12.0,-16.4,30.59,NW,315,5.0,12.6,80,0.00,,CLR,0.00,VWS V14.01,2013-12-23 15:25:00,
2013-12-23 09:35:00,-11.9,-16.3,30.60,NW,316,9.0,13.6,80,0.00,,CLR,0.00,VWS V14.01,2013-12-23 15:35:00,
2013-12-23 09:40:00,-11.8,-16.2,30.60,NW,304,3.0,11.5,80,0.00,,CLR,0.00,VWS V14.01,2013-12-23 15:40:00,
2013-12-23 09:45:00,-11.7,-16.1,30.60,NW,321,8.0,11.5,80,0.00,,CLR,0.00,VWS V14.01,2013-12-23 15:45:00,
2013-12-23 09:50:00,-11.7,-16.1,30.60,NW,315,5.0,12.6,80,0.00,,CLR,0.00,VWS V14.01,2013-12-23 15:50:00,
2013-12-23 09:55:00,-11.5,-15.9,30.61,NW,309,7.0,11.5,80,0.00,,CLR,0.00,VWS V14.01,2013-12-23 15:55:00,
2013-12-23 10:00:00,-11.5,-15.9,30.61,NW,313,3.0,10.5,80,0.00,,CLR,0.00,VWS V14.01,2013-12-23 16:00:00,
2013-12-23 10:05:00,-11.3,-15.7,30.61,NW,323,6.0,9.4,80,0.00,,CLR,0.00,VWS V14.01,2013-12-23 16:05:00,
2013-12-23 10:15:00,-11.1,-15.5,30.61,NW,324,5.0,11.5,80,0.00,,CLR,0.00,VWS V14.01,2013-12-23 16:15:00,
2013-12-23 10:20:00,-11.1,-15.8,30.61,NW,325,11.0,11.5,79,0.00,,CLR,0.00,VWS V14.01,2013-12-23 16:20:00,
2013-12-23 10:25:00,-11.0,-15.7,30.61,WNW,299,4.0,12.6,79,0.00,,CLR,0.00,VWS V14.01,2013-12-23 16:25:00,
2013-12-23 10:30:00,-10.9,-15.3,30.62,NW,304,2.0,13.6,80,0.00,,CLR,0.00,VWS V14.01,2013-12-23 16:30:00,
2013-12-23 10:40:00,-10.7,-15.4,30.62,WNW,300,5.0,14.7,79,0.00,,CLR,0.00,VWS V14.01,2013-12-23 16:40:00,
2013-12-23 10:45:00,-10.4,-15.1,30.62,NW,308,3.0,11.5,79,0.00,,CLR,0.00,VWS V14.01,2013-12-23 16:45:00,
2013-12-23 10:55:00,-10.1,-14.8,30.62,WNW,284,6.0,10.5,79,0.00,,CLR,0.00,VWS V14.01,2013-12-23 16:55:00,
2013-12-23 11:00:00,-10.0,-14.7,30.62,WNW,302,4.0,13.6,79,0.00,,CLR,0.00,VWS V14.01,2013-12-23 17:00:00,
2013-12-23 11:05:00,-9.8,-14.5,30.62,NW,326,4.0,10.5,79,0.00,,CLR,0.00,VWS V14.01,2013-12-23 17:05:00,
2013-12-23 11:15:00,-9.3,-14.0,30.62,WNW,297,4.0,8.4,79,0.00,,CLR,0.00,VWS V14.01,2013-12-23 17:15:00,
2013-12-23 11:20:00,-9.2,-13.9,30.62,WNW,300,3.0,12.6,79,0.00,,CLR,0.00,VWS V14.01,2013-12-23 17:20:00,
2013-12-23 11:30:00,-8.8,-13.5,30.62,WNW,289,9.0,11.5,79,0.00,,CLR,0.00,VWS V14.01,2013-12-23 17:30:00,
2013-12-23 11:35:00,-8.6,-13.3,30.62,NW,304,5.0,10.5,79,0.00,,CLR,0.00,VWS V14.01,2013-12-23 17:35:00,
2013-12-23 11:40:00,-8.4,-13.1,30.62,NW,304,9.0,10.5,79,0.00,,CLR,0.00,VWS V14.01,2013-12-23 17:40:00,
2013-12-23 11:45:00,-8.4,-13.4,30.61,NW,311,10.0,11.5,78,0.00,,CLR,0.00,VWS V14.01,2013-12-23 17:45:00,
2013-12-23 12:00:00,-8.0,-13.0,30.61,NW,308,5.0,11.5,78,0.00,,CLR,0.00,VWS V14.01,2013-12-23 18:00:00,
2013-12-23 12:05:00,-8.0,-13.0,30.61,WNW,296,3.0,11.5,78,0.00,,CLR,0.00,VWS V14.01,2013-12-23 18:05:00,
2013-12-23 12:15:00,-7.7,-12.7,30.61,WNW,302,12.0,12.6,78,0.00,,CLR,0.00,VWS V14.01,2013-12-23 18:15:00,
2013-12-23 12:20:00,-7.7,-12.7,30.61,NW,309,5.0,12.6,78,0.00,,CLR,0.00,VWS V14.01,2013-12-23 18:20:00,
2013-12-23 12:30:00,-7.5,-12.5,30.61,WNW,299,4.0,11.5,78,0.00,,CLR,0.00,VWS V14.01,2013-12-23 18:30:00,
2013-12-23 12:35:00,-7.3,-12.3,30.61,NW,315,3.0,7.3,78,0.00,,CLR,0.00,VWS V14.01,2013-12-23 18:35:00,
2013-12-23 12:40:00,-7.2,-12.2,30.61,WNW,296,0.0,10.5,78,0.00,,CLR,0.00,VWS V14.01,2013-12-23 18:40:00,
2013-12-23 12:45:00,-7.1,-12.1,30.61,WNW,300,3.0,9.4,78,0.00,,CLR,0.00,VWS V14.01,2013-12-23 18:45:00,
2013-12-23 12:55:00,-7.3,-12.6,30.61,NW,311,4.0,12.6,77,0.00,,CLR,0.00,VWS V14.01,2013-12-23 18:55:00,
2013-12-23 13:05:00,-7.0,-12.0,30.60,NW,309,4.0,9.4,78,0.00,,CLR,0.00,VWS V14.01,2013-12-23 19:05:00,
2013-12-23 13:10:00,-6.8,-11.8,30.60,NW,315,3.0,9.4,78,0.00,,CLR,0.00,VWS V14.01,2013-12-23 19:10:00,
2013-12-23 13:20:00,-6.5,-11.8,30.60,WNW,302,5.0,9.4,77,0.00,,CLR,0.00,VWS V14.01,2013-12-23 19:20:00,
2013-12-23 13:25:00,-6.5,-11.8,30.60,NW,307,9.0,11.5,77,0.00,,CLR,0.00,VWS V14.01,2013-12-23 19:25:00,
2013-12-23 13:30:00,-6.4,-11.7,30.60,NW,317,3.0,11.5,77,0.00,,CLR,0.00,VWS V14.01,2013-12-23 19:30:00,
2013-12-23 13:40:00,-5.9,-11.2,30.60,NW,318,12.0,12.6,77,0.00,,CLR,0.00,VWS V14.01,2013-12-23 19:40:00,
2013-12-23 13:45:00,-5.9,-11.5,30.60,NW,325,6.0,13.6,76,0.00,,CLR,0.00,VWS V14.01,2013-12-23 19:45:00,
2013-12-23 13:50:00,-5.7,-11.3,30.60,WNW,294,5.0,10.5,76,0.00,,CLR,0.00,VWS V14.01,2013-12-23 19:50:00,
2013-12-23 13:55:00,-5.5,-11.1,30.60,NW,319,3.0,8.4,76,0.00,,CLR,0.00,VWS V14.01,2013-12-23 19:55:00,
2013-12-23 14:00:00,-5.3,-10.9,30.60,NW,311,2.0,8.4,76,0.00,,CLR,0.00,VWS V14.01,2013-12-23 20:00:00,
2013-12-23 14:05:00,-5.2,-10.8,30.60,NW,304,8.0,8.4,76,0.00,,CLR,0.00,VWS V14.01,2013-12-23 20:05:00,
2013-12-23 14:10:00,-5.0,-10.6,30.60,WNW,292,7.0,8.4,76,0.00,,CLR,0.00,VWS V14.01,2013-12-23 20:10:00,
2013-12-23 14:20:00,-5.2,-11.1,30.60,NW,325,10.0,10.5,75,0.00,,CLR,0.00,VWS V14.01,2013-12-23 20:20:00,
2013-12-23 14:30:00,-5.2,-11.1,30.60,NW,317,9.0,9.4,75,0.00,,CLR,0.00,VWS V14.01,2013-12-23 20:30:00,
2013-12-23 14:35:00,-5.1,-11.0,30.60,NW,313,2.0,10.5,75,0.00,,CLR,0.00,VWS V14.01,2013-12-23 20:35:00,
2013-12-23 14:40:00,-5.0,-10.9,30.60,WNW,303,2.0,10.5,75,0.00,,CLR,0.00,VWS V14.01,2013-12-23 20:40:00,
2013-12-23 14:45:00,-4.9,-10.5,30.60,NW,318,4.0,8.4,76,0.00,,CLR,0.00,VWS V14.01,2013-12-23 20:45:00,
2013-12-23 14:50:00,-4.9,-10.5,30.60,NW,312,2.0,5.2,76,0.00,,CLR,0.00,VWS V14.01,2013-12-23 20:50:00,
2013-12-23 15:05:00,-4.9,-10.5,30.60,NW,315,5.0,8.4,76,0.00,,CLR,0.00,VWS V14.01,2013-12-23 21:05:00,
2013-12-23 15:10:00,-5.2,-11.1,30.60,NW,309,2.0,9.4,75,0.00,,CLR,0.00,VWS V14.01,2013-12-23 21:10:00,
2013-12-23 15:15:00,-5.2,-11.1,30.60,NW,311,3.0,9.4,75,0.00,,CLR,0.00,VWS V14.01,2013-12-23 21:15:00,
2013-12-23 15:25:00,-5.3,-11.2,30.60,WNW,302,7.0,7.3,75,0.00,,CLR,0.00,VWS V14.01,2013-12-23 21:25:00,
2013-12-23 15:30:00,-5.5,-11.4,30.61,NW,313,5.0,8.4,75,0.00,,CLR,0.00,VWS V14.01,2013-12-23 21:30:00,
2013-12-23 15:35:00,-5.5,-11.4,30.61,NW,309,10.0,10.5,75,0.00,,CLR,0.00,VWS V14.01,2013-12-23 21:35:00,
2013-12-23 15:40:00,-5.6,-11.5,30.61,WNW,303,3.0,10.5,75,0.00,,CLR,0.00,VWS V14.01,2013-12-23 21:40:00,
2013-12-23 15:45:00,-5.6,-11.5,30.61,NW,305,2.0,6.3,75,0.00,,CLR,0.00,VWS V14.01,2013-12-23 21:45:00,
2013-12-23 15:55:00,-5.8,-11.7,30.61,WNW,303,2.0,5.2,75,0.00,,CLR,0.00,VWS V14.01,2013-12-23 21:55:00,
2013-12-23 16:10:00,-6.1,-11.9,30.62,WNW,298,1.0,4.2,75,0.00,,CLR,0.00,VWS V14.01,2013-12-23 22:10:00,
2013-12-23 16:20:00,-6.4,-12.0,30.62,WNW,299,3.0,4.2,76,0.00,,CLR,0.00,VWS V14.01,2013-12-23 22:20:00,
2013-12-23 16:25:00,-6.6,-12.2,30.62,WNW,300,3.0,4.2,76,0.00,,CLR,0.00,VWS V14.01,2013-12-23 22:25:00,
2013-12-23 16:30:00,-6.8,-12.4,30.62,WNW,303,2.0,3.1,76,0.00,,CLR,0.00,VWS V14.01,2013-12-23 22:30:00,
2013-12-23 16:40:00,-7.2,-12.8,30.63,WNW,290,2.0,4.2,76,0.00,,CLR,0.00,VWS V14.01,2013-12-23 22:40:00,
2013-12-23 16:45:00,-7.6,-12.9,30.63,WNW,299,3.0,4.2,77,0.00,,CLR,0.00,VWS V14.01,2013-12-23 22:45:00,
2013-12-23 16:50:00,-7.9,-13.2,30.63,WNW,298,1.0,3.1,77,0.00,,CLR,0.00,VWS V14.01,2013-12-23 22:50:00,
2013-12-23 16:55:00,-8.1,-13.4,30.63,WNW,298,1.0,2.1,77,0.00,,CLR,0.00,VWS V14.01,2013-12-23 22:55:00,
2013-12-23 17:00:00,-8.3,-13.6,30.63,WNW,299,3.0,3.1,77,0.00,,CLR,0.00,VWS V14.01,2013-12-23 23:00:00,
2013-12-23 17:05:00,-8.4,-13.7,30.63,NW,309,1.0,3.1,77,0.00,,CLR,0.00,VWS V14.01,2013-12-23 23:05:00,
2013-12-23 17:15:00,-8.6,-13.6,30.64,WNW,302,0.0,2.1,78,0.00,,CLR,0.00,VWS V14.01,2013-12-23 23:15:00,
2013-12-23 17:20:00,-8.8,-13.8,30.64,WNW,300,1.0,3.1,78,0.00,,CLR,0.00,VWS V14.01,2013-12-23 23:20:00,
2013-12-23 17:25:00,-8.9,-13.9,30.64,NW,305,1.0,2.1,78,0.00,,CLR,0.00,VWS V14.01,2013-12-23 23:25:00,
2013-12-23 17:35:00,-9.0,-14.0,30.64,NW,309,1.0,3.1,78,0.00,,CLR,0.00,VWS V14.01,2013-12-23 23:35:00,
2013-12-23 17:40:00,-9.0,-14.0,30.63,NW,308,2.0,3.1,78,0.00,,CLR,0.00,VWS V14.01,2013-12-23 23:40:00,
2013-12-23 17:50:00,-9.0,-14.0,30.63,NW,308,1.0,6.3,78,0.00,,CLR,0.00,VWS V14.01,2013-12-23 23:50:00,
2013-12-23 17:55:00,-9.1,-14.1,30.64,WNW,292,0.0,3.1,78,0.00,,CLR,0.00,VWS V14.01,2013-12-23 23:55:00,
2013-12-23 18:00:00,-9.1,-14.1,30.64,WNW,292,0.0,0.0,78,0.00,,CLR,0.00,VWS V14.01,2013-12-24 00:00:00,
2013-12-23 18:05:00,-9.6,-14.6,30.64,WNW,302,1.0,3.1,78,0.00,,CLR,0.00,VWS V14.01,2013-12-24 00:05:00,
2013-12-23 18:10:00,-9.7,-14.7,30.64,WNW,299,0.0,3.1,78,0.00,,CLR,0.00,VWS V14.01,2013-12-24 00:10:00,
2013-12-23 18:15:00,-9.9,-14.9,30.65,WNW,298,2.0,2.1,78,0.00,,CLR,0.00,VWS V14.01,2013-12-24 00:15:00,
2013-12-23 18:20:00,-10.2,-15.2,30.65,WNW,299,0.0,2.1,78,0.00,,CLR,0.00,VWS V14.01,2013-12-24 00:20:00,
2013-12-23 18:30:00,-10.4,-15.4,30.64,NW,306,2.0,3.1,78,0.00,,CLR,0.00,VWS V14.01,2013-12-24 00:30:00,
2013-12-23 18:35:00,-10.4,-15.1,30.64,NW,311,0.0,3.1,79,0.00,,CLR,0.00,VWS V14.01,2013-12-24 00:35:00,
2013-12-23 18:45:00,-10.5,-15.4,30.64,NW,309,0.0,2.1,78,0.00,,CLR,0.00,VWS V14.01,2013-12-24 00:45:00,
2013-12-23 18:50:00,-10.7,-15.6,30.65,NW,309,0.0,0.0,78,0.00,,CLR,0.00,VWS V14.01,2013-12-24 00:50:00,
2013-12-23 19:05:00,-11.2,-16.1,30.65,WNW,302,0.0,5.2,78,0.00,,CLR,0.00,VWS V14.01,2013-12-24 01:05:00,
2013-12-23 19:15:00,-10.9,-15.6,30.65,NW,313,4.0,5.2,79,0.00,,CLR,0.00,VWS V14.01,2013-12-24 01:15:00,
2013-12-23 19:20:00,-10.9,-15.8,30.65,WNW,303,0.0,7.3,78,0.00,,CLR,0.00,VWS V14.01,2013-12-24 01:20:00,
2013-12-23 19:25:00,-10.9,-15.8,30.65,NW,309,2.0,4.2,78,0.00,,CLR,0.00,VWS V14.01,2013-12-24 01:25:00,
2013-12-23 19:30:00,-10.9,-15.8,30.65,NW,306,1.0,7.3,78,0.00,,CLR,0.00,VWS V14.01,2013-12-24 01:30:00,
2013-12-23 19:35:00,-11.0,-15.9,30.65,NW,315,4.0,6.3,78,0.00,,CLR,0.00,VWS V14.01,2013-12-24 01:35:00,
2013-12-23 19:45:00,-11.1,-16.0,30.65,NW,311,4.0,5.2,78,0.00,,CLR,0.00,VWS V14.01,2013-12-24 01:45:00,
2013-12-23 19:50:00,-11.2,-16.1,30.64,NW,312,1.0,5.2,78,0.00,,CLR,0.00,VWS V14.01,2013-12-24 01:50:00,
2013-12-23 19:55:00,-11.7,-16.6,30.64,NW,319,3.0,3.1,78,0.00,,CLR,0.00,VWS V14.01,2013-12-24 01:55:00,
2013-12-23 20:00:00,-12.0,-16.9,30.64,NW,311,3.0,5.2,78,0.00,,CLR,0.00,VWS V14.01,2013-12-24 02:00:00,
2013-12-23 20:10:00,-12.5,-17.4,30.63,NW,310,2.0,5.2,78,0.00,,CLR,0.00,VWS V14.01,2013-12-24 02:10:00,
2013-12-23 20:15:00,-12.7,-17.6,30.63,NW,309,0.0,3.1,78,0.00,,CLR,0.00,VWS V14.01,2013-12-24 02:15:00,
2013-12-23 20:25:00,-13.3,-18.2,30.63,NW,309,0.0,0.0,78,0.00,,CLR,0.00,VWS V14.01,2013-12-24 02:25:00,
2013-12-23 20:30:00,-13.5,-18.4,30.63,NW,309,0.0,0.0,78,0.00,,CLR,0.00,VWS V14.01,2013-12-24 02:30:00,
2013-12-23 20:40:00,-13.8,-18.4,30.64,NW,309,0.0,1.0,79,0.00,,CLR,0.00,VWS V14.01,2013-12-24 02:40:00,
2013-12-23 20:45:00,-13.9,-18.5,30.64,WNW,297,0.0,0.0,79,0.00,,CLR,0.00,VWS V14.01,2013-12-24 02:45:00,
2013-12-23 20:50:00,-14.1,-18.7,30.63,WNW,297,0.0,0.0,79,0.00,,CLR,0.00,VWS V14.01,2013-12-24 02:50:00,
2013-12-23 21:00:00,-14.2,-18.6,30.63,WNW,291,0.0,0.0,80,0.00,,CLR,0.00,VWS V14.01,2013-12-24 03:00:00,
2013-12-23 21:05:00,-14.1,-18.5,30.63,WNW,282,0.0,0.0,80,0.00,,CLR,0.00,VWS V14.01,2013-12-24 03:05:00,
2013-12-23 21:10:00,-14.2,-18.6,30.63,West,276,1.0,3.1,80,0.00,,CLR,0.00,VWS V14.01,2013-12-24 03:10:00,
2013-12-23 21:15:00,-14.2,-18.6,30.64,West,275,1.0,2.1,80,0.00,,CLR,0.00,VWS V14.01,2013-12-24 03:15:00,
2013-12-23 21:20:00,-14.1,-18.5,30.64,West,276,0.0,3.1,80,0.00,,CLR,0.00,VWS V14.01,2013-12-24 03:20:00,
2013-12-23 21:30:00,-14.3,-18.7,30.63,West,277,0.0,0.0,80,0.00,,CLR,0.00,VWS V14.01,2013-12-24 03:30:00,
2013-12-23 21:40:00,-14.8,-19.2,30.63,West,267,0.0,2.1,80,0.00,,CLR,0.00,VWS V14.01,2013-12-24 03:40:00,
2013-12-23 21:45:00,-14.9,-19.2,30.63,West,265,0.0,0.0,80,0.00,,CLR,0.00,VWS V14.01,2013-12-24 03:45:00,
2013-12-23 21:50:00,-15.1,-19.5,30.63,West,267,0.0,0.0,80,0.00,,CLR,0.00,VWS V14.01,2013-12-24 03:50:00,
2013-12-23 21:55:00,-14.9,-19.2,30.62,West,267,0.0,0.0,80,0.00,,CLR,0.00,VWS V14.01,2013-12-24 03:55:00,
2013-12-23 22:00:00,-14.9,-19.2,30.61,West,267,0.0,0.0,80,0.00,,CLR,0.00,VWS V14.01,2013-12-24 04:00:00,
2013-12-23 22:10:00,-15.1,-19.5,30.62,West,267,0.0,0.0,80,0.00,,CLR,0.00,VWS V14.01,2013-12-24 04:10:00,
2013-12-23 22:20:00,-15.7,-20.0,30.62,WSW,240,0.0,2.1,80,0.00,,CLR,0.00,VWS V14.01,2013-12-24 04:20:00,
2013-12-23 22:25:00,-15.5,-19.8,30.62,WSW,240,0.0,0.0,80,0.00,,CLR,0.00,VWS V14.01,2013-12-24 04:25:00,
2013-12-23 22:30:00,-15.5,-19.8,30.62,WSW,240,0.0,0.0,80,0.00,,CLR,0.00,VWS V14.01,2013-12-24 04:30:00,
2013-12-23 22:40:00,-15.5,-19.8,30.62,WSW,240,0.0,0.0,80,0.00,,CLR,0.00,VWS V14.01,2013-12-24 04:40:00,
2013-12-23 22:45:00,-15.5,-19.8,30.61,WSW,240,0.0,0.0,80,0.00,,CLR,0.00,VWS V14.01,2013-12-24 04:45:00,
2013-12-23 22:55:00,-15.3,-19.4,30.61,WSW,240,0.0,0.0,81,0.00,,CLR,0.00,VWS V14.01,2013-12-24 04:55:00,
2013-12-23 23:05:00,-15.2,-19.3,30.61,WSW,240,0.0,0.0,81,0.00,,CLR,0.00,VWS V14.01,2013-12-24 05:05:00,
2013-12-23 23:10:00,-15.5,-19.8,30.61,WSW,240,0.0,0.0,80,0.00,,CLR,0.00,VWS V14.01,2013-12-24 05:10:00,
2013-12-23 23:15:00,-15.7,-20.0,30.61,WSW,240,0.0,0.0,80,0.00,,CLR,0.00,VWS V14.01,2013-12-24 05:15:00,
2013-12-23 23:25:00,-15.9,-20.0,30.61,WSW,240,0.0,0.0,81,0.00,,CLR,0.00,VWS V14.01,2013-12-24 05:25:00,
2013-12-23 23:30:00,-15.8,-19.9,30.61,SW,225,0.0,0.0,81,0.00,,CLR,0.00,VWS V14.01,2013-12-24 05:30:00,
2013-12-23 23:35:00,-15.3,-19.2,30.61,SW,225,0.0,0.0,82,0.00,,CLR,0.00,VWS V14.01,2013-12-24 05:35:00,
2013-12-23 23:45:00,-15.3,-19.4,30.60,SW,225,0.0,0.0,81,0.00,,CLR,0.00,VWS V14.01,2013-12-24 05:45:00,
2013-12-23 23:55:00,-15.2,-19.3,30.60,SW,225,0.0,0.0,81,0.00,,CLR,0.00,VWS V14.01,2013-12-24 05:55:00,